Oslo, Norvegia

09:30 AM CEST on septembrie 01, 2014 (GMT +0200)
Holter S | Change Station
CLOSE
Current Station
Staţie meteo personală
Location: Nannestad, AKERSHUS
Elevation: 620 ft
Nearby Weather Stations

Elev 620 ft 60.14 °N, 11.05 °E | Updated 4 seconds ago

Clear
Cer senin
52.8 °F
Feels Like 52.8 °F
N
2.3
Vânt variabil Vânt from SE
Gusts 3.5 mph

astăzi
High -- | Low -- °F
--% Chance of Precip.
Ieri
High -- | Low -- °F
Precip. -- inch
6:10 AM 8:21 PM
Semilună în creştere, 38% visible
Presiunea 30.21 inch
Vizibilitatea -9999.0 mile
Nori
Punctul de rouă 47 °F
Umiditatea 80%
Precipitaţii 0.00 inch
Adâncimea zăpezii Not available.
UV Not available.
Pollen Not available.
Calitatea aerului Not available.
Flu Activity Not available.
METAR ENGM 010720Z 00000KT CAVOK 12/07 Q1023 NOSIG

More Conditions Fewer Conditions

Presiunea 30.21 inch
Vizibilitatea -9999.0 mile
Nori
Punctul de rouă 47 °F
Umiditatea 80%
Precipitaţii 0.00 inch
Adâncimea zăpezii Not available.
UV Not available.
Pollen Not available.
Calitatea aerului Not available.
Flu Activity Not available.
METAR ENGM 010720Z 00000KT CAVOK 12/07 Q1023 NOSIG

More Conditions Fewer Conditions

10-Day Weather Forecast

Almanac

Astronomie

Sep. 01, 2014 Răsărit Apus
Timpul Actual 6:10 AM CEST 8:21 PM CEST
Crepusculul Civil 5:25 AM CEST 9:06 PM CEST
Crepusculul nautic 4:26 AM CEST 10:04 PM CEST
Răsărit Astronomic 3:08 AM CEST 11:19 PM CEST
Luna 2:23 PM CEST 10:23 PM CEST
Durata zilei lumină 15h 40m
Lungimea zilei
14h 10m
Tomorrow will be 5m 23s shorter.
Semilună în creştere, 38% of the Moon is Illuminated
astăzi
Semilună în creştere
Sep 2
Primul pătrar
Sep 8
Lună plină
Sep 15
Ultimul pătrar
Sep 24
New

Yesterday's Extremes

Country Highs Country Lows

Community

WunderPhotos

Upload Photos

1,749,154 photos uploaded!

Nearby

Calitatea aerului

Not available.

Adâncimea zapezii

Not available.

Earthquake Activity

Oraş Distance Mag. Time & Date
No recent earthquake activity has been reported nearby.
Minimum magnitude displayed is 2.5.

Coastal Water Temperatures

Locul Temperatura
No Stations Reporting

Nearby Weather Stations